createdAt,value
2023-03-28T00:00:42.961Z,6.03
2023-03-28T00:03:09.795Z,5.93
2023-03-28T00:05:39.784Z,5.33
2023-03-28T00:08:06.746Z,4.55
2023-03-28T00:10:33.850Z,7.90
2023-03-28T00:13:00.289Z,7.00
2023-03-28T00:15:28.108Z,8.30
2023-03-28T00:17:54.531Z,5.90
2023-03-28T00:20:21.325Z,5.83
2023-03-28T00:22:47.761Z,8.43
2023-03-28T00:25:14.165Z,6.63
2023-03-28T00:27:40.555Z,6.87
2023-03-28T00:30:08.289Z,8.23
2023-03-28T00:32:35.195Z,4.17
2023-03-28T00:35:04.177Z,8.03
2023-03-28T00:37:30.606Z,5.73
2023-03-28T00:40:01.519Z,4.85
2023-03-28T00:42:28.020Z,6.07
2023-03-28T00:44:58.449Z,4.77
2023-03-28T00:47:24.969Z,5.65
2023-03-28T00:49:55.660Z,9.47
2023-03-28T00:52:25.248Z,6.97
2023-03-28T00:54:54.015Z,6.20
2023-03-28T00:57:20.784Z,6.80
2023-03-28T00:59:47.420Z,6.90
2023-03-28T01:02:13.933Z,6.50
2023-03-28T01:04:54.906Z,9.47
2023-03-28T01:07:21.504Z,7.67
2023-03-28T01:09:49.516Z,9.07
2023-03-28T01:12:18.080Z,6.50
2023-03-28T01:17:11.844Z,5.33
2023-03-28T01:19:56.684Z,11.13
2023-03-28T01:22:43.368Z,5.43
2023-03-28T01:25:45.943Z,7.50
2023-03-28T01:28:30.718Z,8.77
2023-03-28T01:31:28.326Z,9.50
2023-03-28T01:34:19.034Z,8.53
2023-03-28T01:36:54.529Z,7.72
2023-03-28T01:39:42.570Z,6.30
2023-03-28T01:42:41.447Z,8.67
2023-03-28T01:45:23.106Z,7.10
2023-03-28T01:48:05.170Z,9.37
2023-03-28T01:50:44.292Z,7.13
2023-03-28T01:53:27.907Z,5.40
2023-03-28T01:55:59.060Z,5.30
2023-03-28T01:58:35.541Z,8.23
2023-03-28T02:01:07.013Z,7.03
2023-03-28T02:03:38.857Z,7.63
2023-03-28T02:06:08.967Z,6.27
2023-03-28T02:08:39.395Z,7.93
2023-03-28T02:11:06.715Z,7.60
2023-03-28T02:13:39.813Z,6.57
2023-03-28T02:16:09.620Z,7.50
2023-03-28T02:18:41.016Z,6.82
2023-03-28T02:21:15.682Z,8.37
2023-03-28T02:23:50.389Z,6.33
2023-03-28T02:26:17.458Z,4.70
2023-03-28T02:28:46.817Z,8.63
2023-03-28T02:31:13.503Z,6.90
2023-03-28T02:33:41.184Z,8.77
2023-03-28T02:36:26.828Z,8.40
2023-03-28T02:39:02.607Z,6.90
2023-03-28T02:42:03.274Z,4.90
2023-03-28T02:44:29.736Z,6.68
2023-03-28T02:47:30.545Z,7.67
2023-03-28T02:49:59.961Z,8.70
2023-03-28T02:52:53.665Z,8.87
2023-03-28T02:55:48.307Z,8.43
2023-03-28T02:58:31.226Z,6.90
2023-03-28T03:00:57.901Z,10.93
2023-03-28T03:03:24.489Z,9.97
2023-03-28T03:05:51.044Z,7.47
2023-03-28T03:08:17.461Z,10.43
2023-03-28T03:10:43.845Z,11.30
2023-03-28T03:13:10.433Z,7.07
2023-03-28T03:15:36.999Z,8.53
2023-03-28T03:18:03.961Z,8.47
2023-03-28T03:20:30.882Z,7.80
2023-03-28T03:22:57.566Z,10.83
2023-03-28T03:25:24.136Z,12.47
2023-03-28T03:27:50.979Z,7.47
2023-03-28T03:30:17.750Z,9.57
2023-03-28T03:32:44.615Z,10.30
2023-03-28T03:35:11.766Z,13.00
2023-03-28T03:37:38.401Z,8.27
2023-03-28T03:40:05.623Z,10.87
2023-03-28T03:42:33.413Z,9.67
2023-03-28T03:44:59.983Z,9.97
2023-03-28T03:47:26.760Z,8.50
2023-03-28T03:49:54.815Z,9.93
2023-03-28T03:52:21.734Z,8.27
2023-03-28T03:54:48.240Z,8.33
2023-03-28T03:57:14.757Z,15.77
2023-03-28T03:59:41.626Z,9.00
2023-03-28T04:02:08.150Z,10.23
2023-03-28T04:04:34.724Z,7.63
2023-03-28T04:07:01.406Z,12.97
2023-03-28T04:09:28.217Z,12.00
2023-03-28T04:11:55.692Z,10.70
2023-03-28T04:14:22.310Z,11.63
2023-03-28T04:16:49.244Z,11.23
2023-03-28T04:19:16.021Z,9.67
2023-03-28T04:21:43.727Z,9.27
2023-03-28T04:24:10.162Z,8.60
2023-03-28T04:26:36.538Z,11.57
2023-03-28T04:29:02.973Z,8.83
2023-03-28T04:31:29.994Z,7.80
2023-03-28T04:33:57.067Z,7.53
2023-03-28T04:36:23.632Z,8.90
2023-03-28T04:38:50.418Z,9.30
2023-03-28T04:41:17.089Z,12.23
2023-03-28T04:43:44.194Z,9.57
2023-03-28T04:46:10.688Z,10.73
2023-03-28T04:48:37.776Z,9.73
2023-03-28T04:51:05.100Z,9.87
2023-03-28T04:53:31.484Z,10.33
2023-03-28T04:55:58.121Z,8.70
2023-03-28T04:58:24.612Z,8.70
2023-03-28T05:00:51.228Z,11.93
2023-03-28T05:03:20.463Z,10.47
2023-03-28T05:05:48.639Z,11.10
2023-03-28T05:08:16.837Z,10.83
2023-03-28T05:10:45.071Z,16.10
2023-03-28T05:13:11.708Z,10.27
2023-03-28T05:15:38.497Z,11.27
2023-03-28T05:18:05.252Z,11.77
2023-03-28T05:20:32.790Z,11.07
2023-03-28T05:22:59.570Z,11.47
2023-03-28T05:25:26.317Z,13.60
2023-03-28T05:27:52.751Z,12.23
2023-03-28T05:30:19.673Z,16.63
2023-03-28T05:32:46.430Z,17.67
2023-03-28T05:35:15.085Z,13.43
2023-03-28T05:37:44.126Z,16.23
2023-03-28T05:40:13.796Z,16.65
2023-03-28T05:42:40.527Z,19.13
2023-03-28T05:45:09.143Z,17.97
2023-03-28T05:47:35.742Z,14.87
2023-03-28T05:50:03.544Z,20.53
2023-03-28T05:52:30.281Z,19.50
2023-03-28T05:54:56.750Z,17.63
2023-03-28T05:57:23.892Z,18.63
2023-03-28T05:59:50.501Z,16.77
2023-03-28T06:02:19.406Z,14.77
2023-03-28T06:04:46.221Z,15.37
2023-03-28T06:07:13.321Z,15.23
2023-03-28T06:09:40.900Z,16.77
2023-03-28T06:12:07.875Z,18.57
2023-03-28T06:14:34.740Z,14.20
2023-03-28T06:17:01.230Z,11.73
2023-03-28T06:19:27.912Z,13.67
2023-03-28T06:21:54.380Z,16.40
2023-03-28T06:24:20.800Z,17.40
2023-03-28T06:26:47.277Z,15.43
2023-03-28T06:29:13.710Z,16.40
2023-03-28T06:31:40.315Z,14.37
2023-03-28T06:34:06.853Z,16.87
2023-03-28T06:36:33.365Z,16.27
2023-03-28T06:38:59.757Z,14.23
2023-03-28T06:41:26.652Z,12.00
2023-03-28T06:43:53.246Z,18.33
2023-03-28T06:46:20.177Z,14.57
2023-03-28T06:48:47.038Z,12.87
2023-03-28T06:51:13.696Z,17.63
2023-03-28T06:53:40.103Z,15.80
2023-03-28T06:56:07.252Z,16.20
2023-03-28T06:58:33.978Z,15.03
2023-03-28T07:01:00.629Z,14.47
2023-03-28T07:03:27.523Z,16.47
2023-03-28T07:05:53.926Z,13.43
2023-03-28T07:08:20.326Z,17.03
2023-03-28T07:10:47.069Z,17.40
2023-03-28T07:13:14.302Z,17.03
2023-03-28T07:15:40.901Z,16.53
2023-03-28T07:18:07.561Z,14.52
2023-03-28T07:20:33.954Z,12.43
2023-03-28T07:23:00.632Z,12.75
2023-03-28T07:25:27.171Z,11.35
2023-03-28T07:27:53.926Z,14.20
2023-03-28T07:30:20.425Z,12.93
2023-03-28T07:32:55.519Z,11.27
2023-03-28T07:35:23.908Z,11.73
2023-03-28T07:37:50.455Z,11.20
2023-03-28T07:40:17.041Z,10.80
2023-03-28T07:42:43.438Z,12.07
2023-03-28T07:45:10.400Z,13.50
2023-03-28T07:47:36.788Z,16.42
2023-03-28T07:50:03.476Z,10.60
2023-03-28T07:52:29.897Z,11.52
2023-03-28T07:54:56.291Z,12.02
2023-03-28T07:57:22.698Z,10.15
2023-03-28T07:59:49.359Z,10.18
2023-03-28T08:02:16.381Z,10.70
2023-03-28T08:04:43.693Z,10.43
2023-03-28T08:07:10.451Z,12.63
2023-03-28T08:09:36.872Z,10.60
2023-03-28T08:12:03.369Z,15.88
2023-03-28T08:14:29.981Z,9.45
2023-03-28T08:16:56.411Z,11.10
2023-03-28T08:19:23.939Z,11.00
2023-03-28T08:21:50.989Z,8.55
2023-03-28T08:24:29.001Z,14.38
2023-03-28T08:26:59.679Z,8.00
2023-03-28T08:29:26.285Z,10.02
2023-03-28T08:31:53.077Z,8.68
2023-03-28T08:34:19.762Z,7.32
2023-03-28T08:36:46.504Z,19.15
2023-03-28T08:39:13.385Z,9.18
2023-03-28T08:41:51.812Z,7.97
2023-03-28T08:44:34.650Z,5.30
2023-03-28T08:47:18.909Z,11.10
2023-03-28T08:49:54.563Z,9.65
2023-03-28T08:52:21.707Z,7.32
2023-03-28T08:55:26.098Z,4.95
2023-03-28T08:57:54.723Z,8.38
2023-03-28T09:00:32.450Z,6.13
2023-03-28T09:03:00.543Z,8.32
2023-03-28T09:05:52.064Z,9.18
2023-03-28T09:08:33.127Z,8.77
2023-03-28T09:11:30.676Z,5.93
2023-03-28T09:14:14.770Z,7.68
2023-03-28T09:16:59.184Z,6.57
2023-03-28T09:19:51.070Z,5.28
2023-03-28T09:22:45.218Z,7.85
2023-03-28T09:25:20.948Z,6.35
2023-03-28T09:28:03.818Z,6.68
2023-03-28T09:30:51.698Z,6.38
2023-03-28T09:33:34.310Z,6.05
2023-03-28T09:36:02.508Z,7.03
2023-03-28T09:38:38.828Z,8.82
2023-03-28T09:41:14.931Z,5.05
2023-03-28T09:43:56.245Z,7.85
2023-03-28T09:46:30.548Z,8.43
2023-03-28T09:48:57.922Z,5.68
2023-03-28T09:51:24.754Z,8.95
2023-03-28T09:53:51.111Z,7.32
2023-03-28T09:56:47.893Z,6.18
2023-03-28T09:59:27.779Z,8.23
2023-03-28T10:01:55.964Z,8.50
2023-03-28T10:04:28.481Z,8.73
2023-03-28T10:07:15.606Z,5.90
2023-03-28T10:09:56.715Z,4.60
2023-03-28T10:12:32.360Z,2.72
2023-03-28T10:14:59.173Z,6.63
2023-03-28T10:17:32.817Z,7.18
2023-03-28T10:20:03.816Z,4.72
2023-03-28T10:22:35.488Z,6.32
2023-03-28T10:25:05.411Z,7.47
2023-03-28T10:27:35.244Z,6.67
2023-03-28T10:30:25.459Z,6.83
2023-03-28T10:33:18.054Z,8.93
2023-03-28T10:35:47.468Z,4.30
2023-03-28T10:38:19.120Z,3.97
2023-03-28T10:40:59.785Z,3.65
2023-03-28T10:43:35.796Z,3.50
2023-03-28T10:46:05.750Z,6.50
2023-03-28T10:48:35.588Z,5.05
2023-03-28T10:51:04.970Z,9.32
2023-03-28T10:54:11.109Z,5.35
2023-03-28T10:56:57.657Z,3.80
2023-03-28T10:59:57.612Z,3.75
2023-03-28T11:02:51.692Z,4.75
2023-03-28T11:05:31.882Z,5.15
2023-03-28T11:08:40.370Z,5.90
2023-03-28T11:11:45.353Z,6.25
2023-03-28T11:14:22.413Z,5.28
2023-03-28T11:17:04.115Z,4.65
2023-03-28T11:20:08.048Z,4.82
2023-03-28T11:22:34.642Z,6.40
2023-03-28T11:25:28.539Z,5.95
2023-03-28T11:28:21.414Z,4.93
2023-03-28T11:30:52.613Z,4.90
2023-03-28T11:33:32.087Z,7.47
2023-03-28T11:36:16.865Z,5.82
2023-03-28T11:38:51.152Z,3.35
2023-03-28T11:41:21.160Z,4.18
2023-03-28T11:44:00.867Z,6.63
2023-03-28T11:46:31.492Z,4.55
2023-03-28T11:49:16.405Z,7.47
2023-03-28T11:51:55.833Z,3.38
2023-03-28T11:54:28.485Z,6.10
2023-03-28T11:57:13.654Z,3.90
2023-03-28T12:00:04.930Z,9.02
2023-03-28T12:02:31.729Z,4.40
2023-03-28T12:05:26.626Z,3.03
2023-03-28T12:08:02.584Z,3.70
2023-03-28T12:10:32.372Z,7.57
2023-03-28T12:13:04.695Z,6.65
2023-03-28T12:15:58.518Z,6.25
2023-03-28T12:18:34.003Z,7.45
2023-03-28T12:21:31.646Z,5.82
2023-03-28T12:24:21.279Z,2.80
2023-03-28T12:27:02.940Z,4.15
2023-03-28T12:30:03.004Z,5.22
2023-03-28T12:32:51.567Z,4.78
2023-03-28T12:35:36.816Z,4.40
2023-03-28T12:38:28.066Z,6.55
2023-03-28T12:41:02.605Z,5.15
2023-03-28T12:43:57.601Z,2.65
2023-03-28T12:46:29.675Z,5.65
2023-03-28T12:48:58.992Z,17.40
2023-03-28T12:51:32.388Z,3.03
2023-03-28T12:54:15.718Z,5.00
2023-03-28T12:56:46.104Z,3.28
2023-03-28T12:59:44.419Z,7.07
2023-03-28T13:02:13.643Z,6.88
2023-03-28T13:05:15.967Z,7.55
2023-03-28T13:08:25.426Z,7.32
2023-03-28T13:11:05.068Z,3.08
2023-03-28T13:13:43.739Z,8.13
2023-03-28T13:16:24.931Z,5.95
2023-03-28T13:19:13.804Z,10.05
2023-03-28T13:21:54.179Z,3.63
2023-03-28T13:24:26.381Z,4.40
2023-03-28T13:27:32.001Z,4.70
2023-03-28T13:30:01.646Z,4.25
2023-03-28T13:32:34.342Z,2.08
2023-03-28T13:35:06.440Z,5.05
2023-03-28T13:37:47.495Z,20.65
2023-03-28T13:41:08.703Z,8.73
2023-03-28T13:46:25.995Z,10.57
2023-03-28T13:49:01.105Z,7.07
2023-03-28T13:51:33.910Z,5.05
2023-03-28T13:54:00.878Z,3.67
2023-03-28T13:56:35.504Z,4.85
2023-03-28T13:59:07.708Z,4.18
2023-03-28T14:01:41.848Z,4.43
2023-03-28T14:04:18.813Z,5.45
2023-03-28T14:06:45.479Z,4.97
2023-03-28T14:09:30.271Z,7.63
2023-03-28T14:12:01.078Z,2.25
2023-03-28T14:17:14.147Z,3.28
2023-03-28T14:19:48.266Z,5.00
2023-03-28T14:22:17.085Z,5.38
2023-03-28T14:24:47.286Z,2.70
2023-03-28T14:27:16.135Z,3.28
2023-03-28T14:29:52.777Z,5.22
2023-03-28T14:32:26.169Z,5.40
2023-03-28T14:34:52.914Z,3.70
2023-03-28T14:37:20.422Z,3.08
2023-03-28T14:39:46.861Z,5.32
2023-03-28T14:42:18.912Z,2.90
2023-03-28T14:44:50.736Z,5.55
2023-03-28T14:47:26.456Z,4.35
2023-03-28T14:49:53.301Z,5.05
2023-03-28T14:52:28.994Z,1.90
2023-03-28T14:54:57.136Z,4.22
2023-03-28T14:57:24.625Z,5.10
2023-03-28T14:59:52.589Z,4.43
2023-03-28T15:02:26.156Z,3.08
2023-03-28T15:04:54.878Z,5.63
2023-03-28T15:07:26.957Z,3.30
2023-03-28T15:10:10.153Z,6.05
2023-03-28T15:12:47.179Z,5.57
2023-03-28T15:15:35.490Z,2.88
2023-03-28T15:18:06.874Z,4.70
2023-03-28T15:20:36.852Z,6.35
2023-03-28T15:23:07.640Z,4.70
2023-03-28T15:28:06.412Z,5.22
2023-03-28T15:30:35.606Z,5.18
2023-03-28T15:33:05.500Z,4.55
2023-03-28T15:35:40.657Z,4.03
2023-03-28T15:38:15.119Z,4.35
2023-03-28T15:40:50.345Z,6.32
2023-03-28T15:43:25.913Z,5.30
2023-03-28T15:46:03.567Z,3.67
2023-03-28T15:48:33.930Z,2.63
2023-03-28T15:51:04.936Z,8.15
2023-03-28T15:53:32.040Z,2.30
2023-03-28T15:56:13.968Z,4.68
2023-03-28T15:58:43.822Z,4.20
2023-03-28T16:01:30.421Z,6.05
2023-03-28T16:04:27.924Z,2.28
2023-03-28T16:07:15.627Z,6.40
2023-03-28T16:09:42.351Z,4.53
2023-03-28T16:12:13.064Z,4.40
2023-03-28T16:14:50.996Z,3.80
2023-03-28T16:17:17.511Z,4.03
2023-03-28T16:19:43.991Z,3.67
2023-03-28T16:22:10.415Z,5.90
2023-03-28T16:24:36.775Z,2.20
2023-03-28T16:27:03.465Z,5.07
2023-03-28T16:29:30.228Z,3.63
2023-03-28T16:31:56.682Z,3.60
2023-03-28T16:34:23.161Z,3.92
2023-03-28T16:36:49.630Z,3.33
2023-03-28T16:39:16.046Z,2.42
2023-03-28T16:41:42.417Z,2.83
2023-03-28T16:44:09.174Z,2.67
2023-03-28T16:46:36.390Z,4.03
2023-03-28T16:49:02.801Z,2.90
2023-03-28T16:51:29.554Z,4.65
2023-03-28T16:53:56.063Z,4.93
2023-03-28T16:56:22.654Z,5.25
2023-03-28T16:58:49.010Z,3.60
2023-03-28T17:01:16.068Z,3.10
2023-03-28T17:03:42.650Z,5.18
2023-03-28T17:06:10.602Z,7.18
2023-03-28T17:08:38.272Z,4.00
2023-03-28T17:11:10.016Z,5.65
2023-03-28T17:13:38.338Z,3.50
2023-03-28T17:16:06.232Z,2.97
2023-03-28T17:18:32.661Z,3.47
2023-03-28T17:21:05.563Z,2.47
2023-03-28T17:23:33.244Z,7.35
2023-03-28T17:26:00.384Z,9.02
2023-03-28T17:28:28.345Z,7.55
2023-03-28T17:30:58.603Z,5.22
2023-03-28T17:33:25.777Z,8.82
2023-03-28T17:35:52.277Z,10.15
2023-03-28T17:38:18.652Z,3.95
2023-03-28T17:40:49.011Z,4.25
2023-03-28T17:43:16.158Z,3.97
2023-03-28T17:45:42.646Z,4.45
2023-03-28T17:48:09.188Z,4.90
2023-03-28T17:50:36.040Z,3.25
2023-03-28T17:53:02.799Z,4.50
2023-03-28T17:55:29.216Z,6.18
2023-03-28T17:57:55.734Z,4.75
2023-03-28T18:00:22.619Z,6.18
2023-03-28T18:02:49.421Z,5.55
2023-03-28T18:05:15.955Z,5.72
2023-03-28T18:07:42.402Z,5.00
2023-03-28T18:10:09.550Z,4.07
2023-03-28T18:12:36.797Z,7.30
2023-03-28T18:15:04.106Z,11.50
2023-03-28T18:17:30.543Z,6.07
2023-03-28T18:19:56.936Z,5.50
2023-03-28T18:22:23.372Z,6.13
2023-03-28T18:24:50.291Z,40.70
2023-03-28T18:27:16.962Z,14.80
2023-03-28T18:29:43.364Z,7.43
2023-03-28T18:32:09.688Z,7.55
2023-03-28T18:34:36.098Z,7.35
2023-03-28T18:37:02.484Z,4.93
2023-03-28T18:39:29.266Z,3.55
2023-03-28T18:41:55.781Z,6.72
2023-03-28T18:44:22.358Z,8.30
2023-03-28T18:46:48.979Z,14.43
2023-03-28T18:49:15.461Z,7.95
2023-03-28T18:51:42.021Z,8.30
2023-03-28T18:54:08.447Z,13.57
2023-03-28T18:56:34.853Z,11.02
2023-03-28T18:59:01.302Z,8.27
2023-03-28T19:01:27.865Z,6.25
2023-03-28T19:03:54.429Z,8.57
2023-03-28T19:06:21.328Z,7.05
2023-03-28T19:08:47.876Z,5.82
2023-03-28T19:11:16.241Z,5.20
2023-03-28T19:13:43.598Z,7.38
2023-03-28T19:16:13.170Z,6.20
2023-03-28T19:18:42.509Z,6.53
2023-03-28T19:21:10.678Z,8.07
2023-03-28T19:23:40.959Z,11.57
2023-03-28T19:26:11.849Z,7.78
2023-03-28T19:28:38.844Z,9.18
2023-03-28T19:31:07.745Z,8.38
2023-03-28T19:33:36.068Z,10.15
2023-03-28T19:36:03.014Z,7.55
2023-03-28T19:38:33.411Z,9.10
2023-03-28T19:41:02.062Z,5.97
2023-03-28T19:43:30.514Z,7.57
2023-03-28T19:46:05.043Z,7.68
2023-03-28T19:48:33.013Z,9.05
2023-03-28T19:50:59.957Z,7.15
2023-03-28T19:53:27.062Z,8.52
2023-03-28T19:55:55.204Z,10.25
2023-03-28T19:58:22.584Z,7.43
2023-03-28T20:00:49.114Z,8.77
2023-03-28T20:03:16.149Z,5.65
2023-03-28T20:05:47.291Z,5.57
2023-03-28T20:08:14.958Z,6.50
2023-03-28T20:10:49.461Z,4.45
2023-03-28T20:13:16.672Z,8.80
2023-03-28T20:15:44.956Z,7.03
2023-03-28T20:18:13.813Z,7.22
2023-03-28T20:20:43.575Z,8.15
2023-03-28T20:23:10.515Z,14.35
2023-03-28T20:25:37.013Z,11.60
2023-03-28T20:28:03.813Z,19.67
2023-03-28T20:30:31.343Z,19.92
2023-03-28T20:32:58.588Z,11.90
2023-03-28T20:35:28.356Z,7.72
2023-03-28T20:37:54.890Z,8.65
2023-03-28T20:40:23.216Z,8.52
2023-03-28T20:42:49.644Z,7.72
2023-03-28T20:45:16.776Z,12.40
2023-03-28T20:47:43.432Z,6.88
2023-03-28T20:50:10.331Z,7.60
2023-03-28T20:52:38.129Z,5.50
2023-03-28T20:55:05.941Z,7.15
2023-03-28T20:57:32.383Z,7.18
2023-03-28T20:59:58.870Z,7.15
2023-03-28T21:02:26.799Z,6.57
2023-03-28T21:04:53.353Z,4.38
2023-03-28T21:07:20.025Z,7.05
2023-03-28T21:09:46.659Z,9.18
2023-03-28T21:12:13.120Z,6.00
2023-03-28T21:14:39.438Z,5.93
2023-03-28T21:17:07.075Z,6.05
2023-03-28T21:19:33.780Z,6.70
2023-03-28T21:22:00.836Z,4.47
2023-03-28T21:24:27.546Z,4.97
2023-03-28T21:26:54.250Z,8.77
2023-03-28T21:29:20.946Z,4.28
2023-03-28T21:31:47.501Z,6.82
2023-03-28T21:34:13.982Z,7.18
2023-03-28T21:36:40.409Z,5.85
2023-03-28T21:39:06.876Z,4.30
2023-03-28T21:41:33.513Z,4.25
2023-03-28T21:43:59.874Z,4.10
2023-03-28T21:46:26.676Z,3.28
2023-03-28T21:48:53.090Z,6.28
2023-03-28T21:51:19.468Z,6.85
2023-03-28T21:53:46.057Z,6.80
2023-03-28T21:56:12.704Z,6.53
2023-03-28T21:58:39.085Z,7.53
2023-03-28T22:01:05.955Z,7.38
2023-03-28T22:03:36.228Z,6.28
2023-03-28T22:06:03.158Z,6.87
2023-03-28T22:08:29.679Z,6.60
2023-03-28T22:10:57.899Z,6.35
2023-03-28T22:13:24.934Z,7.63
2023-03-28T22:15:51.975Z,7.28
2023-03-28T22:18:18.795Z,5.50
2023-03-28T22:20:46.107Z,8.50
2023-03-28T22:23:12.582Z,9.05
2023-03-28T22:25:39.413Z,5.10
2023-03-28T22:28:09.148Z,7.30
2023-03-28T22:30:37.993Z,7.50
2023-03-28T22:33:05.299Z,5.68
2023-03-28T22:35:32.346Z,7.22
2023-03-28T22:37:59.784Z,4.50
2023-03-28T22:40:26.757Z,15.77
2023-03-28T22:42:53.205Z,7.95
2023-03-28T22:45:22.913Z,5.97
2023-03-28T22:47:50.535Z,7.13
2023-03-28T22:50:18.502Z,6.45
2023-03-28T22:52:45.951Z,5.53
2023-03-28T22:55:12.752Z,4.93
2023-03-28T22:57:40.665Z,4.15
2023-03-28T23:00:08.178Z,5.38
2023-03-28T23:02:35.304Z,5.68
2023-03-28T23:05:01.891Z,6.72
2023-03-28T23:07:28.618Z,5.43
2023-03-28T23:09:55.508Z,2.90
2023-03-28T23:12:21.974Z,3.58
2023-03-28T23:14:48.744Z,2.95
2023-03-28T23:17:15.377Z,3.50
2023-03-28T23:19:42.156Z,4.00
2023-03-28T23:22:08.510Z,5.32
2023-03-28T23:24:35.116Z,3.72
2023-03-28T23:27:01.682Z,3.63
2023-03-28T23:29:28.149Z,4.20
2023-03-28T23:31:54.843Z,4.32
2023-03-28T23:34:21.314Z,4.45
2023-03-28T23:36:48.015Z,4.28
2023-03-28T23:39:14.789Z,3.67
2023-03-28T23:41:41.357Z,4.20
2023-03-28T23:44:07.836Z,5.95
2023-03-28T23:46:34.600Z,3.15
2023-03-28T23:49:01.323Z,4.90
2023-03-28T23:51:28.114Z,2.17
2023-03-28T23:53:55.427Z,4.28
2023-03-28T23:56:22.196Z,3.35
2023-03-28T23:58:48.630Z,3.75
